createdAt,value
2022-12-25T00:01:17.360Z,6.85
2022-12-25T00:04:00.520Z,6.91
2022-12-25T00:06:43.736Z,6.96
2022-12-25T00:09:28.274Z,6.93
2022-12-25T00:12:11.306Z,6.89
2022-12-25T00:14:54.357Z,6.93
2022-12-25T00:17:37.446Z,6.95
2022-12-25T00:20:20.847Z,6.93
2022-12-25T00:23:03.791Z,6.97
2022-12-25T00:25:48.202Z,6.97
2022-12-25T00:28:31.210Z,6.94
2022-12-25T00:31:16.784Z,6.90
2022-12-25T00:33:59.831Z,6.98
2022-12-25T00:36:42.947Z,7.03
2022-12-25T00:39:26.611Z,7.09
2022-12-25T00:42:21.441Z,6.98
2022-12-25T00:45:05.860Z,7.12
2022-12-25T00:47:48.897Z,7.06
2022-12-25T00:50:31.919Z,7.08
2022-12-25T00:53:14.913Z,7.00
2022-12-25T00:55:59.134Z,7.04
2022-12-25T00:58:44.003Z,7.06
2022-12-25T01:01:27.093Z,7.04
2022-12-25T01:04:11.616Z,6.90
2022-12-25T01:06:54.609Z,7.00
2022-12-25T01:09:55.186Z,6.98
2022-12-25T01:12:41.020Z,6.97
2022-12-25T01:15:25.712Z,6.98
2022-12-25T01:18:12.714Z,7.01
2022-12-25T01:20:55.982Z,6.93
2022-12-25T01:23:39.565Z,6.94
2022-12-25T01:26:25.563Z,6.94
2022-12-25T01:29:08.589Z,6.85
2022-12-25T01:31:53.041Z,6.88
2022-12-25T01:34:36.630Z,6.89
2022-12-25T01:37:19.961Z,6.88
2022-12-25T01:40:02.975Z,6.86
2022-12-25T01:42:46.013Z,6.90
2022-12-25T01:45:38.879Z,6.89
2022-12-25T01:48:27.271Z,6.91
2022-12-25T01:51:23.006Z,6.87
2022-12-25T01:54:09.478Z,6.84
2022-12-25T01:56:55.336Z,6.95
2022-12-25T01:59:38.495Z,6.88
2022-12-25T02:02:22.399Z,6.95
2022-12-25T02:05:11.492Z,6.84
2022-12-25T02:07:55.875Z,6.74
2022-12-25T02:10:39.978Z,6.87
2022-12-25T02:13:23.722Z,6.80
2022-12-25T02:16:14.427Z,6.80
2022-12-25T02:19:03.189Z,6.80
2022-12-25T02:22:02.563Z,6.75
2022-12-25T02:25:08.372Z,6.78
2022-12-25T02:28:08.601Z,6.71
2022-12-25T02:30:57.742Z,6.72
2022-12-25T02:34:05.726Z,6.62
2022-12-25T02:36:53.873Z,6.53
2022-12-25T02:39:59.667Z,6.56
2022-12-25T02:43:06.228Z,6.49
2022-12-25T02:46:26.545Z,6.44
2022-12-25T02:49:30.685Z,6.48
2022-12-25T02:52:37.874Z,6.44
2022-12-25T02:55:41.281Z,6.49
2022-12-25T02:58:45.181Z,6.48
2022-12-25T03:01:51.948Z,6.42
2022-12-25T03:04:52.978Z,6.39
2022-12-25T03:07:40.996Z,6.38
2022-12-25T03:10:42.014Z,6.38
2022-12-25T03:13:30.286Z,6.44
2022-12-25T03:16:30.833Z,6.41
2022-12-25T03:19:29.135Z,6.42
2022-12-25T03:22:33.808Z,6.43
2022-12-25T03:25:36.425Z,6.37
2022-12-25T03:28:19.602Z,6.32
2022-12-25T03:31:11.724Z,6.37
2022-12-25T03:34:34.410Z,6.43
2022-12-25T03:38:01.320Z,6.25
2022-12-25T03:41:14.968Z,6.29
2022-12-25T03:44:23.459Z,6.27
2022-12-25T03:47:29.764Z,6.25
2022-12-25T03:50:36.130Z,6.22
2022-12-25T03:53:43.365Z,6.21
2022-12-25T03:56:45.460Z,6.18
2022-12-25T03:59:46.079Z,6.18
2022-12-25T04:02:46.652Z,6.11
2022-12-25T04:05:47.237Z,6.13
2022-12-25T04:08:50.079Z,6.10
2022-12-25T04:11:50.540Z,6.11
2022-12-25T04:14:50.731Z,6.07
2022-12-25T04:17:51.251Z,6.05
2022-12-25T04:20:51.540Z,6.04
2022-12-25T04:24:08.142Z,6.03
2022-12-25T04:27:08.336Z,6.01
2022-12-25T04:30:08.544Z,5.96
2022-12-25T04:33:08.879Z,5.95
2022-12-25T04:36:11.700Z,5.92
2022-12-25T04:38:56.092Z,5.85
2022-12-25T04:41:39.199Z,5.80
2022-12-25T04:44:22.241Z,5.67
2022-12-25T04:47:10.880Z,5.76
2022-12-25T04:49:54.649Z,5.74
2022-12-25T04:52:38.504Z,5.68
2022-12-25T04:55:23.122Z,5.72
2022-12-25T04:58:06.377Z,5.80
2022-12-25T05:00:49.468Z,5.85
2022-12-25T05:03:33.830Z,5.82
2022-12-25T05:06:17.402Z,5.91
2022-12-25T05:09:00.465Z,5.86
2022-12-25T05:11:44.920Z,5.78
2022-12-25T05:14:28.083Z,5.87
2022-12-25T05:17:11.118Z,5.87
2022-12-25T05:19:54.175Z,5.88
2022-12-25T05:22:37.217Z,5.91
2022-12-25T05:25:20.307Z,5.87
2022-12-25T05:28:04.842Z,5.88
2022-12-25T05:30:47.897Z,5.99
2022-12-25T05:33:31.058Z,5.89
2022-12-25T05:36:14.490Z,5.89
2022-12-25T05:38:57.581Z,5.84
2022-12-25T05:41:40.676Z,5.92
2022-12-25T05:44:25.404Z,5.90
2022-12-25T05:47:08.444Z,5.96
2022-12-25T05:49:54.413Z,6.05
2022-12-25T05:52:37.678Z,6.10
2022-12-25T05:55:20.959Z,6.06
2022-12-25T05:58:04.164Z,5.98
2022-12-25T06:00:48.697Z,6.02
2022-12-25T06:03:31.832Z,6.15
2022-12-25T06:06:15.407Z,6.23
2022-12-25T06:08:58.440Z,6.25
2022-12-25T06:11:41.655Z,6.28
2022-12-25T06:14:24.736Z,6.36
2022-12-25T06:17:09.213Z,6.40
2022-12-25T06:19:52.246Z,6.47
2022-12-25T06:22:36.060Z,6.57
2022-12-25T06:25:19.280Z,6.72
2022-12-25T06:28:02.375Z,6.88
2022-12-25T06:30:45.665Z,6.98
2022-12-25T06:33:30.192Z,7.10
2022-12-25T06:36:16.230Z,7.11
2022-12-25T06:39:02.057Z,7.24
2022-12-25T06:41:45.159Z,7.31
2022-12-25T06:44:28.458Z,7.30
2022-12-25T06:47:12.057Z,7.48
2022-12-25T06:49:56.497Z,7.45
2022-12-25T06:52:40.987Z,7.40
2022-12-25T06:55:23.999Z,6.92
2022-12-25T06:58:09.939Z,6.98
2022-12-25T07:00:52.968Z,7.33
2022-12-25T07:03:35.990Z,7.54
2022-12-25T07:06:20.579Z,8.52
2022-12-25T07:09:03.803Z,13.63
2022-12-25T07:11:46.985Z,17.67
2022-12-25T07:14:30.063Z,20.43
2022-12-25T07:17:13.197Z,22.84
2022-12-25T07:19:56.760Z,25.95
2022-12-25T07:22:41.355Z,26.15
2022-12-25T07:25:24.472Z,27.66
2022-12-25T07:28:07.701Z,28.22
2022-12-25T07:30:50.853Z,29.82
2022-12-25T07:33:34.267Z,29.40
2022-12-25T07:36:17.361Z,32.13
2022-12-25T07:39:01.863Z,33.21
2022-12-25T07:41:45.282Z,34.97
2022-12-25T07:44:28.354Z,34.41
2022-12-25T07:47:11.615Z,36.04
2022-12-25T07:49:54.603Z,36.52
2022-12-25T07:52:43.587Z,38.15
2022-12-25T07:55:28.639Z,37.57
2022-12-25T07:58:12.045Z,38.69
2022-12-25T08:00:55.284Z,39.19
2022-12-25T08:03:38.851Z,38.36
2022-12-25T08:06:23.454Z,40.16
2022-12-25T08:09:09.016Z,39.58
2022-12-25T08:11:53.542Z,39.84
2022-12-25T08:14:36.634Z,40.12
2022-12-25T08:17:19.813Z,38.16
2022-12-25T08:20:02.900Z,38.09
2022-12-25T08:22:47.262Z,39.61
2022-12-25T08:25:32.063Z,40.32
2022-12-25T08:28:16.587Z,40.08
2022-12-25T08:30:59.710Z,40.30
2022-12-25T08:33:43.020Z,40.80
2022-12-25T08:36:26.860Z,41.02
2022-12-25T08:39:10.294Z,40.73
2022-12-25T08:41:53.413Z,40.50
2022-12-25T08:44:37.959Z,40.65
2022-12-25T08:47:21.065Z,40.91
2022-12-25T08:50:04.265Z,41.51
2022-12-25T08:52:47.374Z,41.59
2022-12-25T08:55:30.893Z,40.86
2022-12-25T08:58:14.751Z,41.25
2022-12-25T09:01:00.270Z,39.87
2022-12-25T09:03:43.686Z,39.62
2022-12-25T09:06:26.909Z,40.05
2022-12-25T09:09:10.068Z,37.58
2022-12-25T09:11:53.310Z,33.26
2022-12-25T09:14:36.348Z,30.02
2022-12-25T09:17:20.875Z,27.90
2022-12-25T09:20:04.142Z,25.52
2022-12-25T09:22:47.234Z,24.16
2022-12-25T09:25:30.365Z,23.58
2022-12-25T09:28:13.488Z,22.26
2022-12-25T09:30:57.053Z,21.12
2022-12-25T09:33:44.144Z,19.74
2022-12-25T09:36:27.286Z,18.51
2022-12-25T09:39:10.391Z,17.69
2022-12-25T09:41:57.512Z,17.02
2022-12-25T09:44:45.785Z,16.10
2022-12-25T09:47:33.260Z,15.83
2022-12-25T09:50:24.978Z,16.01
2022-12-25T09:53:16.554Z,16.09
2022-12-25T09:56:05.347Z,16.87
2022-12-25T09:58:48.971Z,18.53
2022-12-25T10:01:37.635Z,22.87
2022-12-25T10:04:43.405Z,27.25
2022-12-25T10:07:40.552Z,31.39
2022-12-25T10:10:38.430Z,33.39
2022-12-25T10:13:54.106Z,34.84
2022-12-25T10:16:48.098Z,37.26
2022-12-25T10:19:46.204Z,38.16
2022-12-25T10:22:35.835Z,39.95
2022-12-25T10:25:22.042Z,41.27
2022-12-25T10:28:13.098Z,40.51
2022-12-25T10:31:02.396Z,41.45
2022-12-25T10:33:45.635Z,41.12
2022-12-25T10:36:30.645Z,42.05
2022-12-25T10:39:18.600Z,42.51
2022-12-25T10:42:21.339Z,42.53
2022-12-25T10:45:09.186Z,41.47
2022-12-25T10:48:07.377Z,39.89
2022-12-25T10:50:51.704Z,40.65
2022-12-25T10:53:40.877Z,40.92
2022-12-25T10:56:25.972Z,41.48
2022-12-25T10:59:13.184Z,41.24
2022-12-25T11:01:57.379Z,41.38
2022-12-25T11:04:40.652Z,40.13
2022-12-25T11:07:26.806Z,39.40
2022-12-25T11:10:23.292Z,40.85
2022-12-25T11:13:09.913Z,41.49
2022-12-25T11:16:04.667Z,40.79
2022-12-25T11:18:50.411Z,42.82
2022-12-25T11:21:35.244Z,43.76
2022-12-25T11:24:21.239Z,45.03
2022-12-25T11:27:08.156Z,44.18
2022-12-25T11:29:56.143Z,41.25
2022-12-25T11:32:47.587Z,40.79
2022-12-25T11:35:35.666Z,42.24
2022-12-25T11:38:19.068Z,42.86
2022-12-25T11:41:06.053Z,43.49
2022-12-25T11:43:55.004Z,41.82
2022-12-25T11:46:44.386Z,40.93
2022-12-25T11:49:27.570Z,41.14
2022-12-25T11:52:14.067Z,39.91
2022-12-25T11:55:04.196Z,36.47
2022-12-25T11:57:51.408Z,31.27
2022-12-25T12:00:36.858Z,27.17
2022-12-25T12:03:27.187Z,25.00
2022-12-25T12:06:17.426Z,23.35
2022-12-25T12:09:16.113Z,21.19
2022-12-25T12:12:07.299Z,19.54
2022-12-25T12:14:57.201Z,18.75
2022-12-25T12:17:40.360Z,17.60
2022-12-25T12:20:33.312Z,16.58
2022-12-25T12:23:18.068Z,16.29
2022-12-25T12:26:01.674Z,15.92
2022-12-25T12:28:47.888Z,15.72
2022-12-25T12:31:40.987Z,15.32
2022-12-25T12:34:29.634Z,14.99
2022-12-25T12:37:24.656Z,14.74
2022-12-25T12:40:23.221Z,14.51
2022-12-25T12:43:08.405Z,14.47
2022-12-25T12:45:56.836Z,14.11
2022-12-25T12:48:42.827Z,13.97
2022-12-25T12:51:31.728Z,13.66
2022-12-25T12:54:24.022Z,13.64
2022-12-25T12:57:23.167Z,13.54
2022-12-25T13:00:11.014Z,13.19
2022-12-25T13:03:25.838Z,13.20
2022-12-25T13:06:15.154Z,13.19
2022-12-25T13:09:10.636Z,13.14
2022-12-25T13:11:56.012Z,13.05
2022-12-25T13:14:46.588Z,12.97
2022-12-25T13:17:30.964Z,12.94
2022-12-25T13:20:23.710Z,12.85
2022-12-25T13:23:15.675Z,12.80
2022-12-25T13:26:01.641Z,12.63
2022-12-25T13:28:48.158Z,12.57
2022-12-25T13:31:32.251Z,12.51
2022-12-25T13:34:24.793Z,12.46
2022-12-25T13:37:10.249Z,12.21
2022-12-25T13:39:55.923Z,12.26
2022-12-25T13:42:40.597Z,12.22
2022-12-25T13:45:27.319Z,12.11
2022-12-25T13:48:16.762Z,12.07
2022-12-25T13:51:02.251Z,11.98
2022-12-25T13:53:45.693Z,11.94
2022-12-25T13:56:28.726Z,11.91
2022-12-25T13:59:17.409Z,11.78
2022-12-25T14:02:02.331Z,11.80
2022-12-25T14:04:46.350Z,11.71
2022-12-25T14:07:29.454Z,11.59
2022-12-25T14:10:14.395Z,11.49
2022-12-25T14:13:01.083Z,11.23
2022-12-25T14:15:46.335Z,11.20
2022-12-25T14:18:31.423Z,11.11
2022-12-25T14:21:23.686Z,11.10
2022-12-25T14:24:15.028Z,11.01
2022-12-25T14:27:00.465Z,10.95
2022-12-25T14:29:46.882Z,10.85
2022-12-25T14:32:32.604Z,10.72
2022-12-25T14:35:23.359Z,10.73
2022-12-25T14:38:07.750Z,10.77
2022-12-25T14:41:00.466Z,10.61
2022-12-25T14:43:53.548Z,10.53
2022-12-25T14:46:37.309Z,10.42
2022-12-25T14:49:25.859Z,10.39
2022-12-25T14:52:18.436Z,10.34
2022-12-25T14:55:03.416Z,10.26
2022-12-25T14:57:49.940Z,10.21
2022-12-25T15:00:35.856Z,10.12
2022-12-25T15:03:24.330Z,10.10
2022-12-25T15:06:19.205Z,10.02
2022-12-25T15:09:07.219Z,10.03
2022-12-25T15:11:50.567Z,9.94
2022-12-25T15:14:36.467Z,9.90
2022-12-25T15:17:27.984Z,9.85
2022-12-25T15:20:13.841Z,9.79
2022-12-25T15:23:18.428Z,9.70
2022-12-25T15:26:01.448Z,9.69
2022-12-25T15:28:44.729Z,9.58
2022-12-25T15:31:30.438Z,9.56
2022-12-25T15:34:20.534Z,9.58
2022-12-25T15:37:03.622Z,9.55
2022-12-25T15:39:46.971Z,9.57
2022-12-25T15:42:34.130Z,9.56
2022-12-25T15:45:21.492Z,9.51
2022-12-25T15:48:04.601Z,9.50
2022-12-25T15:51:00.940Z,9.55
2022-12-25T15:53:44.174Z,9.46
2022-12-25T15:56:28.281Z,9.40
2022-12-25T15:59:14.408Z,9.40
2022-12-25T16:01:59.309Z,9.30
2022-12-25T16:04:42.667Z,9.23
2022-12-25T16:07:27.771Z,9.27
2022-12-25T16:10:15.985Z,9.27
2022-12-25T16:12:59.119Z,9.22
2022-12-25T16:15:45.105Z,9.18
2022-12-25T16:18:29.995Z,9.18
2022-12-25T16:21:15.656Z,9.10
2022-12-25T16:24:00.088Z,9.13
2022-12-25T16:26:43.573Z,9.07
2022-12-25T16:29:26.880Z,9.02
2022-12-25T16:32:12.886Z,8.99
2022-12-25T16:34:56.333Z,8.97
2022-12-25T16:37:40.828Z,9.02
2022-12-25T16:40:23.990Z,8.89
2022-12-25T16:43:07.284Z,8.92
2022-12-25T16:45:50.442Z,8.91
2022-12-25T16:48:34.989Z,8.89
2022-12-25T16:51:20.093Z,8.94
2022-12-25T16:54:03.222Z,8.85
2022-12-25T16:56:46.344Z,8.88
2022-12-25T16:59:29.745Z,8.88
2022-12-25T17:02:16.605Z,8.85
2022-12-25T17:05:01.272Z,8.84
2022-12-25T17:07:49.125Z,8.77
2022-12-25T17:10:32.584Z,8.82
2022-12-25T17:13:16.138Z,8.84
2022-12-25T17:15:59.353Z,8.68
2022-12-25T17:18:42.504Z,8.66
2022-12-25T17:21:27.603Z,8.70
2022-12-25T17:24:11.217Z,8.64
2022-12-25T17:26:54.478Z,8.42
2022-12-25T17:29:39.089Z,8.32
2022-12-25T17:32:22.108Z,8.14
2022-12-25T17:35:05.620Z,7.93
2022-12-25T17:37:50.082Z,7.83
2022-12-25T17:40:33.139Z,7.69
2022-12-25T17:43:20.815Z,7.55
2022-12-25T17:46:07.168Z,7.44
2022-12-25T17:48:51.139Z,7.25
2022-12-25T17:51:34.165Z,7.12
2022-12-25T17:54:18.678Z,7.04
2022-12-25T17:57:01.860Z,6.96
2022-12-25T17:59:45.110Z,6.86
2022-12-25T18:02:30.022Z,6.67
2022-12-25T18:05:13.315Z,6.61
2022-12-25T18:07:56.581Z,6.54
2022-12-25T18:10:42.932Z,6.42
2022-12-25T18:13:26.024Z,6.43
2022-12-25T18:16:09.676Z,6.34
2022-12-25T18:18:53.808Z,6.28
2022-12-25T18:21:36.952Z,6.22
2022-12-25T18:24:19.988Z,6.29
2022-12-25T18:27:04.488Z,6.23
2022-12-25T18:29:47.963Z,6.23
2022-12-25T18:32:31.013Z,6.18
2022-12-25T18:35:14.070Z,6.09
2022-12-25T18:37:57.605Z,6.09
2022-12-25T18:40:43.170Z,6.05
2022-12-25T18:43:54.195Z,6.02
2022-12-25T18:46:31.558Z,6.03
2022-12-25T18:49:14.721Z,5.96
2022-12-25T18:52:49.551Z,5.93
2022-12-25T18:55:01.035Z,5.87
2022-12-25T18:57:44.541Z,5.84
2022-12-25T19:00:29.161Z,5.72
2022-12-25T19:03:12.332Z,5.71
2022-12-25T19:05:55.411Z,5.60
2022-12-25T19:08:38.576Z,5.50
2022-12-25T19:11:22.389Z,5.48
2022-12-25T19:14:05.536Z,5.39
2022-12-25T19:16:50.797Z,5.37
2022-12-25T19:19:34.630Z,5.37
2022-12-25T19:22:18.330Z,5.40
2022-12-25T19:25:03.117Z,5.35
2022-12-25T19:27:46.628Z,5.30
2022-12-25T19:30:29.691Z,5.26
2022-12-25T19:33:17.741Z,5.28
2022-12-25T19:36:01.885Z,5.27
2022-12-25T19:38:45.364Z,5.26
2022-12-25T19:41:28.457Z,5.17
2022-12-25T19:44:12.243Z,5.15
2022-12-25T19:46:55.909Z,5.11
2022-12-25T19:49:40.857Z,5.11
2022-12-25T19:52:24.466Z,5.03
2022-12-25T19:55:08.600Z,4.96
2022-12-25T19:57:51.659Z,4.93
2022-12-25T20:00:35.311Z,4.92
2022-12-25T20:03:18.533Z,4.87
2022-12-25T20:06:03.243Z,4.93
2022-12-25T20:08:46.825Z,4.86
2022-12-25T20:11:32.517Z,4.78
2022-12-25T20:14:17.389Z,4.73
2022-12-25T20:17:00.522Z,4.76
2022-12-25T20:19:44.055Z,4.81
2022-12-25T20:22:29.122Z,4.74
2022-12-25T20:25:14.049Z,4.77
2022-12-25T20:27:57.494Z,4.76
2022-12-25T20:30:40.897Z,4.68
2022-12-25T20:33:24.447Z,4.71
2022-12-25T20:36:08.167Z,4.73
2022-12-25T20:38:53.103Z,4.66
2022-12-25T20:41:36.631Z,4.67
2022-12-25T20:44:20.227Z,4.61
2022-12-25T20:47:03.804Z,4.61
2022-12-25T20:49:48.188Z,4.64
2022-12-25T20:52:31.320Z,4.58
2022-12-25T20:55:15.839Z,4.51
2022-12-25T20:57:58.918Z,4.53
2022-12-25T21:00:42.468Z,4.53
2022-12-25T21:03:25.930Z,4.31
2022-12-25T21:06:10.158Z,4.12
2022-12-25T21:08:53.544Z,4.21
2022-12-25T21:11:39.623Z,4.18
2022-12-25T21:14:23.043Z,3.79
2022-12-25T21:17:06.220Z,3.88
2022-12-25T21:19:49.635Z,3.70
2022-12-25T21:22:33.698Z,3.68
2022-12-25T21:25:16.878Z,3.77
2022-12-25T21:28:01.513Z,3.81
2022-12-25T21:30:44.828Z,3.63
2022-12-25T21:33:45.545Z,3.70
2022-12-25T21:36:30.117Z,3.72
2022-12-25T21:39:14.350Z,3.62
2022-12-25T21:41:57.444Z,3.67
2022-12-25T21:44:41.881Z,3.65
2022-12-25T21:47:24.922Z,3.63
2022-12-25T21:50:25.970Z,3.69
2022-12-25T21:53:09.330Z,3.57
2022-12-25T21:56:00.693Z,3.54
2022-12-25T21:58:43.845Z,3.53
2022-12-25T22:01:28.495Z,3.49
2022-12-25T22:04:12.303Z,3.43
2022-12-25T22:07:09.185Z,3.47
2022-12-25T22:09:52.857Z,3.39
2022-12-25T22:12:53.165Z,3.37
2022-12-25T22:15:53.488Z,3.35
2022-12-25T22:18:55.683Z,3.28
2022-12-25T22:21:38.795Z,3.33
2022-12-25T22:24:21.820Z,3.38
2022-12-25T22:27:05.214Z,3.38
2022-12-25T22:29:48.665Z,3.34
2022-12-25T22:32:31.723Z,3.40
2022-12-25T22:35:16.396Z,3.42
2022-12-25T22:37:59.408Z,3.42
2022-12-25T22:40:42.418Z,3.42
2022-12-25T22:43:50.458Z,3.42
2022-12-25T22:46:29.136Z,3.38
2022-12-25T22:49:12.207Z,3.34
2022-12-25T22:51:56.906Z,3.31
2022-12-25T22:54:40.117Z,3.33
2022-12-25T22:57:23.108Z,3.32
2022-12-25T23:00:08.927Z,3.32
2022-12-25T23:02:52.164Z,3.35
2022-12-25T23:05:35.287Z,3.40
2022-12-25T23:08:19.683Z,3.31
2022-12-25T23:11:03.499Z,3.38
2022-12-25T23:14:03.328Z,3.34
2022-12-25T23:16:46.473Z,3.30
2022-12-25T23:19:46.975Z,3.34
2022-12-25T23:22:47.387Z,3.30
2022-12-25T23:25:49.370Z,3.26
2022-12-25T23:28:49.640Z,3.24
2022-12-25T23:31:35.093Z,3.20
2022-12-25T23:34:18.111Z,3.16
2022-12-25T23:37:01.174Z,2.93
2022-12-25T23:39:44.379Z,2.71
2022-12-25T23:42:28.859Z,2.73
2022-12-25T23:45:13.825Z,2.74
2022-12-25T23:47:56.859Z,2.63
2022-12-25T23:50:39.906Z,2.56
2022-12-25T23:53:22.986Z,2.33
2022-12-25T23:56:06.803Z,2.41
2022-12-25T23:58:52.467Z,2.45
